Moultrie, GA

3:30 AM EST en Noviembre 29, 2014 (GMT -0500)
City of Moultrie Service Center | Change Station
CLOSE
Current Station
Estación meteorológica personal
Location: Moultrie, GA
Altura: 299 ft
Estaciones meteorológicas cercanas

Alt 299 ft 31.19 °N, 83.79 °W | Updated 4 minutes ago

Despejado
Despejado
34.9 ° F
Sensación térmica 35 ° F
N
0.0
Viento Variable Viento desde NNO
Gusts 0.0 mph

Hoy
Alta -- | Baja -- ° F
--% Posibilidad de precipitaciones
Ayer
Alta -- | Baja -- ° F
Precip. -- pul
7:14 AM 5:32 PM
Creciente, 49% visible
Presión 30.31 pul
Visibilidad 7.0 Millas
Nubes Despejado
Vientos helados 35 ° F
Punto de rocío 33 ° F
Humedad 94%
Precipitaciones 0.00 pul
Espesor de la nieve No disponible.
UV 0 de una escala de 12
Polen .30 de una escala de 12
Calidad del aire No disponible.
Flu Activity No disponible.
METAR KMGR 290815Z AUTO 00000KT 7SM CLR 01/01 A3031 RMK AO2

More Conditions Fewer Conditions

Presión 30.31 pul
Visibilidad 7.0 Millas
Nubes Despejado
Vientos helados 35 ° F
Punto de rocío 33 ° F
Humedad 94%
Precipitaciones 0.00 pul
Espesor de la nieve No disponible.
UV 0 de una escala de 12
Polen .30 de una escala de 12
Calidad del aire No disponible.
Flu Activity No disponible.
METAR KMGR 290815Z AUTO 00000KT 7SM CLR 01/01 A3031 RMK AO2

More Conditions Fewer Conditions

10-Day Weather Forecast

Almanac

Astronomía

Nov. 29, 2014 Salida Puesta
Hora real
Crepúsculo civil
Crepúsculo náutico
Crepúsculo astronómico
Luna
Horas de luz
Horas de luz
Tomorrow will be .
, % of the Moon is Illuminated

Extremos de hoy

Máximos del estado Bajos del estado

Community

WunderPhotos

Upload Photos

1,774,432 ¡fotos cargadas!

WunderBlogs® & News

Nearby

Calidad del aire

  Calidad del aire Índice AQ Contaminante
Not available.

Grosos de nieve

Estación Profundido Altura

Actividad de terremotos

Ciudad Distance Mag. Tiempo y dato
Magnitud mínima muestra es 2,5.

Temperaturas de aguas costeras

Lugar Temperatura

Estaciones meteorológicas cercanas